sensor_id;sensor_type;location;lat;lon;timestamp;pressure;altitude;pressure_sealevel;temperature;humidity
64158;BME280;50449;51.528;5.076;2023-04-15T00:02:00;100642.31;;;16.89;48.44
64158;BME280;50449;51.528;5.076;2023-04-15T00:04:26;100643.38;;;16.88;48.59
64158;BME280;50449;51.528;5.076;2023-04-15T00:06:52;100642.03;;;16.85;48.53
64158;BME280;50449;51.528;5.076;2023-04-15T00:09:19;100644.28;;;16.83;48.50
64158;BME280;50449;51.528;5.076;2023-04-15T00:11:45;100638.28;;;16.81;48.68
64158;BME280;50449;51.528;5.076;2023-04-15T00:14:11;100639.38;;;16.80;48.55
64158;BME280;50449;51.528;5.076;2023-04-15T00:16:37;100641.59;;;16.78;48.71
64158;BME280;50449;51.528;5.076;2023-04-15T00:19:02;100642.13;;;16.75;49.03
64158;BME280;50449;51.528;5.076;2023-04-15T00:21:27;100651.69;;;16.73;48.67
64158;BME280;50449;51.528;5.076;2023-04-15T00:23:53;100638.34;;;16.71;48.71
64158;BME280;50449;51.528;5.076;2023-04-15T00:26:19;100648.72;;;16.69;48.48
64158;BME280;50449;51.528;5.076;2023-04-15T00:28:45;100641.94;;;16.66;48.88
64158;BME280;50449;51.528;5.076;2023-04-15T00:31:11;100645.72;;;16.65;48.92
64158;BME280;50449;51.528;5.076;2023-04-15T00:33:36;100647.13;;;16.63;48.65
64158;BME280;50449;51.528;5.076;2023-04-15T00:36:02;100651.22;;;16.60;48.61
64158;BME280;50449;51.528;5.076;2023-04-15T00:38:28;100642.56;;;16.58;48.53
64158;BME280;50449;51.528;5.076;2023-04-15T00:40:54;100648.56;;;16.55;48.55
64158;BME280;50449;51.528;5.076;2023-04-15T00:43:19;100651.59;;;16.54;48.53
64158;BME280;50449;51.528;5.076;2023-04-15T00:45:45;100644.47;;;16.53;48.59
64158;BME280;50449;51.528;5.076;2023-04-15T00:48:11;100643.13;;;16.50;48.47
64158;BME280;50449;51.528;5.076;2023-04-15T00:50:37;100648.88;;;16.49;48.60
64158;BME280;50449;51.528;5.076;2023-04-15T00:53:02;100647.25;;;16.48;48.56
64158;BME280;50449;51.528;5.076;2023-04-15T00:55:28;100645.91;;;16.45;48.47
64158;BME280;50449;51.528;5.076;2023-04-15T00:57:53;100641.84;;;16.42;48.85
64158;BME280;50449;51.528;5.076;2023-04-15T01:00:19;100640.50;;;16.40;48.71
64158;BME280;50449;51.528;5.076;2023-04-15T01:02:45;100635.34;;;16.38;48.47
64158;BME280;50449;51.528;5.076;2023-04-15T01:05:10;100643.78;;;16.37;48.52
64158;BME280;50449;51.528;5.076;2023-04-15T01:07:36;100640.53;;;16.35;48.67
64158;BME280;50449;51.528;5.076;2023-04-15T01:10:03;100631.81;;;16.33;48.29
64158;BME280;50449;51.528;5.076;2023-04-15T01:12:31;100638.66;;;16.30;48.46
64158;BME280;50449;51.528;5.076;2023-04-15T01:14:58;100638.16;;;16.28;48.38
64158;BME280;50449;51.528;5.076;2023-04-15T01:17:24;100642.25;;;16.26;48.50
64158;BME280;50449;51.528;5.076;2023-04-15T01:19:50;100641.41;;;16.25;48.58
64158;BME280;50449;51.528;5.076;2023-04-15T01:22:16;100645.50;;;16.22;48.54
64158;BME280;50449;51.528;5.076;2023-04-15T01:24:49;100636.84;;;16.20;48.73
64158;BME280;50449;51.528;5.076;2023-04-15T01:27:16;100637.09;;;16.19;48.36
64158;BME280;50449;51.528;5.076;2023-04-15T01:29:41;100640.41;;;16.16;48.47
64158;BME280;50449;51.528;5.076;2023-04-15T01:32:07;100643.41;;;16.14;48.63
64158;BME280;50449;51.528;5.076;2023-04-15T01:34:32;100642.06;;;16.12;48.90
64158;BME280;50449;51.528;5.076;2023-04-15T01:36:57;100652.13;;;16.11;48.57
64158;BME280;50449;51.528;5.076;2023-04-15T01:39:23;100642.63;;;16.09;48.60
64158;BME280;50449;51.528;5.076;2023-04-15T01:41:48;100648.34;;;16.07;48.54
64158;BME280;50449;51.528;5.076;2023-04-15T01:44:13;100644.00;;;16.06;48.62
64158;BME280;50449;51.528;5.076;2023-04-15T01:46:39;100648.91;;;16.04;48.18
64158;BME280;50449;51.528;5.076;2023-04-15T01:49:04;100634.75;;;16.02;48.75
64158;BME280;50449;51.528;5.076;2023-04-15T01:51:30;100643.22;;;16.00;48.48
64158;BME280;50449;51.528;5.076;2023-04-15T01:53:56;100648.13;;;15.98;48.46
64158;BME280;50449;51.528;5.076;2023-04-15T01:56:21;100650.03;;;15.98;48.57
64158;BME280;50449;51.528;5.076;2023-04-15T01:58:48;100643.25;;;15.95;48.34
64158;BME280;50449;51.528;5.076;2023-04-15T02:01:14;100641.06;;;15.92;48.38
64158;BME280;50449;51.528;5.076;2023-04-15T02:03:41;100652.81;;;15.93;48.49
64158;BME280;50449;51.528;5.076;2023-04-15T02:06:06;100640.56;;;15.90;48.49
64158;BME280;50449;51.528;5.076;2023-04-15T02:08:32;100642.44;;;15.90;48.39
64158;BME280;50449;51.528;5.076;2023-04-15T02:10:57;100643.81;;;15.87;48.32
64158;BME280;50449;51.528;5.076;2023-04-15T02:13:23;100646.84;;;15.86;48.17
64158;BME280;50449;51.528;5.076;2023-04-15T02:15:49;100644.38;;;15.84;48.52
64158;BME280;50449;51.528;5.076;2023-04-15T02:18:15;100644.69;;;15.83;48.33
64158;BME280;50449;51.528;5.076;2023-04-15T02:20:40;100647.69;;;15.81;48.51
64158;BME280;50449;51.528;5.076;2023-04-15T02:23:08;100646.31;;;15.78;48.42
64158;BME280;50449;51.528;5.076;2023-04-15T02:25:33;100648.25;;;15.78;48.10
64158;BME280;50449;51.528;5.076;2023-04-15T02:27:58;100656.41;;;15.78;48.38
64158;BME280;50449;51.528;5.076;2023-04-15T02:30:24;100659.69;;;15.75;48.40
64158;BME280;50449;51.528;5.076;2023-04-15T02:32:50;100663.50;;;15.74;48.17
64158;BME280;50449;51.528;5.076;2023-04-15T02:35:16;100661.06;;;15.72;48.57
64158;BME280;50449;51.528;5.076;2023-04-15T02:37:44;100668.69;;;15.70;48.35
64158;BME280;50449;51.528;5.076;2023-04-15T02:40:10;100671.66;;;15.69;48.28
64158;BME280;50449;51.528;5.076;2023-04-15T02:42:40;100675.50;;;15.68;48.36
64158;BME280;50449;51.528;5.076;2023-04-15T02:45:06;100672.22;;;15.66;48.44
64158;BME280;50449;51.528;5.076;2023-04-15T02:47:32;100679.84;;;15.64;48.26
64158;BME280;50449;51.528;5.076;2023-04-15T02:49:58;100682.84;;;15.62;48.48
64158;BME280;50449;51.528;5.076;2023-04-15T02:52:25;100682.31;;;15.60;48.22
64158;BME280;50449;51.528;5.076;2023-04-15T02:54:50;100690.75;;;15.58;48.20
64158;BME280;50449;51.528;5.076;2023-04-15T02:57:16;100694.59;;;15.57;48.45
64158;BME280;50449;51.528;5.076;2023-04-15T02:59:41;100694.59;;;15.57;48.08
64158;BME280;50449;51.528;5.076;2023-04-15T03:02:06;100695.13;;;15.54;48.25
64158;BME280;50449;51.528;5.076;2023-04-15T03:04:32;100696.22;;;15.53;48.03
64158;BME280;50449;51.528;5.076;2023-04-15T03:06:58;100699.22;;;15.52;48.40
64158;BME280;50449;51.528;5.076;2023-04-15T03:09:23;100693.25;;;15.50;48.30
64158;BME280;50449;51.528;5.076;2023-04-15T03:11:49;100686.16;;;15.49;48.21
64158;BME280;50449;51.528;5.076;2023-04-15T03:14:16;100690.78;;;15.48;48.34
64158;BME280;50449;51.528;5.076;2023-04-15T03:16:41;100690.25;;;15.46;48.10
64158;BME280;50449;51.528;5.076;2023-04-15T03:19:07;100686.97;;;15.44;48.24
64158;BME280;50449;51.528;5.076;2023-04-15T03:21:32;100691.63;;;15.44;48.17
64158;BME280;50449;51.528;5.076;2023-04-15T03:23:57;100698.16;;;15.43;48.14
64158;BME280;50449;51.528;5.076;2023-04-15T03:26:25;100697.63;;;15.41;48.44
64158;BME280;50449;51.528;5.076;2023-04-15T03:28:51;100698.72;;;15.40;48.30
64158;BME280;50449;51.528;5.076;2023-04-15T03:31:16;100702.78;;;15.37;48.17
64158;BME280;50449;51.528;5.076;2023-04-15T03:33:42;100701.16;;;15.36;48.31
64158;BME280;50449;51.528;5.076;2023-04-15T03:36:07;100714.22;;;15.34;48.18
64158;BME280;50449;51.528;5.076;2023-04-15T03:38:32;100706.34;;;15.32;48.24
64158;BME280;50449;51.528;5.076;2023-04-15T03:40:58;100711.78;;;15.32;47.97
64158;BME280;50449;51.528;5.076;2023-04-15T03:43:23;100711.25;;;15.30;48.32
64158;BME280;50449;51.528;5.076;2023-04-15T03:45:49;100714.22;;;15.29;48.51
64158;BME280;50449;51.528;5.076;2023-04-15T03:48:14;100713.44;;;15.28;48.43
64158;BME280;50449;51.528;5.076;2023-04-15T03:50:39;100724.88;;;15.25;48.50
64158;BME280;50449;51.528;5.076;2023-04-15T03:53:05;100724.06;;;15.25;48.28
64158;BME280;50449;51.528;5.076;2023-04-15T03:55:31;100729.75;;;15.23;48.39
64158;BME280;50449;51.528;5.076;2023-04-15T03:57:56;100731.66;;;15.23;48.40
64158;BME280;50449;51.528;5.076;2023-04-15T04:00:21;100725.69;;;15.21;48.42
64158;BME280;50449;51.528;5.076;2023-04-15T04:02:47;100732.22;;;15.20;48.31
64158;BME280;50449;51.528;5.076;2023-04-15T04:05:12;100736.81;;;15.19;48.36
64158;BME280;50449;51.528;5.076;2023-04-15T04:07:37;100739.03;;;15.17;48.31
64158;BME280;50449;51.528;5.076;2023-04-15T04:10:03;100744.72;;;15.15;48.44
64158;BME280;50449;51.528;5.076;2023-04-15T04:12:29;100747.44;;;15.15;48.30
64158;BME280;50449;51.528;5.076;2023-04-15T04:14:54;100745.00;;;15.14;48.54
64158;BME280;50449;51.528;5.076;2023-04-15T04:17:19;100744.19;;;15.13;48.38
64158;BME280;50449;51.528;5.076;2023-04-15T04:19:45;100743.63;;;15.11;48.30
64158;BME280;50449;51.528;5.076;2023-04-15T04:22:10;100752.91;;;15.10;48.54
64158;BME280;50449;51.528;5.076;2023-04-15T04:24:36;100754.00;;;15.09;48.32
64158;BME280;50449;51.528;5.076;2023-04-15T04:27:01;100756.16;;;15.07;48.18
64158;BME280;50449;51.528;5.076;2023-04-15T04:29:27;100768.97;;;15.07;48.37
64158;BME280;50449;51.528;5.076;2023-04-15T04:31:52;100760.25;;;15.05;48.49
64158;BME280;50449;51.528;5.076;2023-04-15T04:34:18;100767.56;;;15.04;48.63
64158;BME280;50449;51.528;5.076;2023-04-15T04:36:43;100768.94;;;15.02;48.30
64158;BME280;50449;51.528;5.076;2023-04-15T04:39:08;100776.28;;;15.01;48.46
64158;BME280;50449;51.528;5.076;2023-04-15T04:41:34;100773.84;;;15.00;48.43
64158;BME280;50449;51.528;5.076;2023-04-15T04:43:59;100791.25;;;14.99;48.50
64158;BME280;50449;51.528;5.076;2023-04-15T04:46:24;100786.91;;;14.98;48.38
64158;BME280;50449;51.528;5.076;2023-04-15T04:48:50;100794.25;;;14.97;48.57
64158;BME280;50449;51.528;5.076;2023-04-15T04:51:15;100796.41;;;14.95;48.34
64158;BME280;50449;51.528;5.076;2023-04-15T04:53:41;100796.41;;;14.95;48.52
64158;BME280;50449;51.528;5.076;2023-04-15T04:56:07;100796.97;;;14.92;48.31
64158;BME280;50449;51.528;5.076;2023-04-15T04:58:32;100800.75;;;14.91;48.13
64158;BME280;50449;51.528;5.076;2023-04-15T05:00:58;100804.56;;;14.90;48.40
64158;BME280;50449;51.528;5.076;2023-04-15T05:03:23;100810.28;;;14.88;48.57
64158;BME280;50449;51.528;5.076;2023-04-15T05:05:49;100810.56;;;14.87;48.20
64158;BME280;50449;51.528;5.076;2023-04-15T05:08:15;100820.59;;;14.86;48.51
64158;BME280;50449;51.528;5.076;2023-04-15T05:10:40;100823.31;;;14.86;48.65
64158;BME280;50449;51.528;5.076;2023-04-15T05:13:06;100828.22;;;14.84;48.46
64158;BME280;50449;51.528;5.076;2023-04-15T05:15:31;100828.50;;;14.83;48.38
64158;BME280;50449;51.528;5.076;2023-04-15T05:17:57;100835.84;;;14.82;48.37
64158;BME280;50449;51.528;5.076;2023-04-15T05:20:22;100841.53;;;14.81;48.75
64158;BME280;50449;51.528;5.076;2023-04-15T05:22:48;100857.03;;;14.80;48.31
64158;BME280;50449;51.528;5.076;2023-04-15T05:25:13;100857.28;;;14.79;48.49
64158;BME280;50449;51.528;5.076;2023-04-15T05:27:39;100863.81;;;14.78;48.52
64158;BME280;50449;51.528;5.076;2023-04-15T05:30:05;100864.94;;;14.77;48.38
64158;BME280;50449;51.528;5.076;2023-04-15T05:32:31;100858.94;;;14.75;48.62
64158;BME280;50449;51.528;5.076;2023-04-15T05:34:56;100866.28;;;14.74;48.57
64158;BME280;50449;51.528;5.076;2023-04-15T05:37:22;100873.59;;;14.74;48.62
64158;BME280;50449;51.528;5.076;2023-04-15T05:39:47;100866.78;;;14.71;48.40
64158;BME280;50449;51.528;5.076;2023-04-15T05:42:13;100876.84;;;14.70;48.30
64158;BME280;50449;51.528;5.076;2023-04-15T05:44:38;100883.38;;;14.69;48.77
64158;BME280;50449;51.528;5.076;2023-04-15T05:47:04;100886.09;;;14.69;48.56
64158;BME280;50449;51.528;5.076;2023-04-15T05:49:30;100889.88;;;14.68;48.42
64158;BME280;50449;51.528;5.076;2023-04-15T05:51:55;100894.78;;;14.66;48.41
64158;BME280;50449;51.528;5.076;2023-04-15T05:54:20;100899.41;;;14.66;48.54
64158;BME280;50449;51.528;5.076;2023-04-15T05:56:49;100903.22;;;14.65;48.50
64158;BME280;50449;51.528;5.076;2023-04-15T05:59:14;100912.44;;;14.64;48.62
64158;BME280;50449;51.528;5.076;2023-04-15T06:01:39;100912.44;;;14.64;48.43
64158;BME280;50449;51.528;5.076;2023-04-15T06:04:05;100918.97;;;14.63;48.34
64158;BME280;50449;51.528;5.076;2023-04-15T06:06:30;100923.84;;;14.61;48.54
64158;BME280;50449;51.528;5.076;2023-04-15T06:08:57;100930.09;;;14.61;48.33
64158;BME280;50449;51.528;5.076;2023-04-15T06:11:22;100939.34;;;14.60;48.51
64158;BME280;50449;51.528;5.076;2023-04-15T06:13:48;100934.72;;;14.61;48.52
64158;BME280;50449;51.528;5.076;2023-04-15T06:16:13;100943.69;;;14.61;48.50
64158;BME280;50449;51.528;5.076;2023-04-15T06:18:38;100944.78;;;14.60;48.29
64158;BME280;50449;51.528;5.076;2023-04-15T06:21:04;100949.41;;;14.60;48.26
64158;BME280;50449;51.528;5.076;2023-04-15T06:23:33;100960.28;;;14.60;48.29
64158;BME280;50449;51.528;5.076;2023-04-15T06:25:58;100961.34;;;14.59;48.46
64158;BME280;50449;51.528;5.076;2023-04-15T06:28:24;100969.50;;;14.59;48.45
64158;BME280;50449;51.528;5.076;2023-04-15T06:30:49;100972.22;;;14.59;48.33
64158;BME280;50449;51.528;5.076;2023-04-15T06:33:15;100979.56;;;14.58;48.41
64158;BME280;50449;51.528;5.076;2023-04-15T06:35:40;100978.75;;;14.58;48.42
64158;BME280;50449;51.528;5.076;2023-04-15T06:38:06;100978.75;;;14.58;48.41
64158;BME280;50449;51.528;5.076;2023-04-15T06:40:31;100987.72;;;14.58;48.28
64158;BME280;50449;51.528;5.076;2023-04-15T06:42:56;100991.53;;;14.57;48.49
64158;BME280;50449;51.528;5.076;2023-04-15T06:45:22;100994.25;;;14.57;48.28
64158;BME280;50449;51.528;5.076;2023-04-15T06:47:47;101002.41;;;14.57;48.28
64158;BME280;50449;51.528;5.076;2023-04-15T06:50:13;100999.41;;;14.59;48.55
64158;BME280;50449;51.528;5.076;2023-04-15T06:52:38;101005.69;;;14.59;48.26
64158;BME280;50449;51.528;5.076;2023-04-15T06:55:04;101001.06;;;14.60;48.37
64158;BME280;50449;51.528;5.076;2023-04-15T06:57:31;101013.84;;;14.59;48.25
64158;BME280;50449;51.528;5.076;2023-04-15T06:59:56;101008.13;;;14.61;48.38
64158;BME280;50449;51.528;5.076;2023-04-15T07:02:22;101016.28;;;14.61;48.42
64158;BME280;50449;51.528;5.076;2023-04-15T07:04:47;101024.19;;;14.62;48.56
64158;BME280;50449;51.528;5.076;2023-04-15T07:07:13;101014.94;;;14.63;48.23
64158;BME280;50449;51.528;5.076;2023-04-15T07:09:39;101025.00;;;14.63;48.36
64158;BME280;50449;51.528;5.076;2023-04-15T07:12:04;101024.75;;;14.64;48.22
64158;BME280;50449;51.528;5.076;2023-04-15T07:14:30;101035.09;;;14.67;48.50
64158;BME280;50449;51.528;5.076;2023-04-15T07:16:56;101037.00;;;14.67;48.28
64158;BME280;50449;51.528;5.076;2023-04-15T07:19:21;101035.09;;;14.67;48.18
64158;BME280;50449;51.528;5.076;2023-04-15T07:21:48;101038.38;;;14.69;48.31
64158;BME280;50449;51.528;5.076;2023-04-15T07:24:13;101042.72;;;14.70;48.12
64158;BME280;50449;51.528;5.076;2023-04-15T07:26:43;101044.34;;;14.71;48.60
64158;BME280;50449;51.528;5.076;2023-04-15T07:29:08;101055.78;;;14.74;48.31
64158;BME280;50449;51.528;5.076;2023-04-15T07:31:34;101053.91;;;14.74;48.20
64158;BME280;50449;51.528;5.076;2023-04-15T07:34:01;101058.81;;;14.77;48.63
64158;BME280;50449;51.528;5.076;2023-04-15T07:36:27;101073.22;;;14.78;48.26
64158;BME280;50449;51.528;5.076;2023-04-15T07:38:53;101069.97;;;14.81;48.26
64158;BME280;50449;51.528;5.076;2023-04-15T07:41:20;101069.72;;;14.82;48.51
64158;BME280;50449;51.528;5.076;2023-04-15T07:43:46;101073.00;;;14.84;48.48
64158;BME280;50449;51.528;5.076;2023-04-15T07:46:11;101078.16;;;14.86;48.59
64158;BME280;50449;51.528;5.076;2023-04-15T07:48:36;101089.59;;;14.88;49.05
64158;BME280;50449;51.528;5.076;2023-04-15T07:51:02;101092.59;;;14.91;48.96
64158;BME280;50449;51.528;5.076;2023-04-15T07:53:27;101093.97;;;14.94;49.03
64158;BME280;50449;51.528;5.076;2023-04-15T07:55:53;101102.44;;;14.98;48.91
64158;BME280;50449;51.528;5.076;2023-04-15T07:58:18;101105.19;;;15.03;48.95
64158;BME280;50449;51.528;5.076;2023-04-15T08:00:43;101110.66;;;15.08;48.97
64158;BME280;50449;51.528;5.076;2023-04-15T08:03:09;101113.66;;;15.11;48.95
64158;BME280;50449;51.528;5.076;2023-04-15T08:05:35;101122.38;;;15.13;49.67
64158;BME280;50449;51.528;5.076;2023-04-15T08:08:00;101125.69;;;15.21;48.97
64158;BME280;50449;51.528;5.076;2023-04-15T08:10:26;101130.06;;;15.27;49.51
64158;BME280;50449;51.528;5.076;2023-04-15T08:12:51;101133.38;;;15.34;49.57
64158;BME280;50449;51.528;5.076;2023-04-15T08:15:19;101128.25;;;15.43;49.32
64158;BME280;50449;51.528;5.076;2023-04-15T08:17:44;101134.53;;;15.48;49.29
64158;BME280;50449;51.528;5.076;2023-04-15T08:20:10;101138.91;;;15.54;49.01
64158;BME280;50449;51.528;5.076;2023-04-15T08:22:37;101145.72;;;15.62;48.68
64158;BME280;50449;51.528;5.076;2023-04-15T08:25:03;101140.06;;;15.69;49.08
64158;BME280;50449;51.528;5.076;2023-04-15T08:27:29;101155.38;;;15.75;48.79
64158;BME280;50449;51.528;5.076;2023-04-15T08:29:54;101149.66;;;15.82;49.17
64158;BME280;50449;51.528;5.076;2023-04-15T08:32:19;101155.66;;;15.89;49.33
64158;BME280;50449;51.528;5.076;2023-04-15T08:34:45;101160.88;;;15.95;49.24
64158;BME280;50449;51.528;5.076;2023-04-15T08:37:10;101166.88;;;16.02;49.16
64158;BME280;50449;51.528;5.076;2023-04-15T08:39:37;101161.16;;;16.09;48.93
64158;BME280;50449;51.528;5.076;2023-04-15T08:42:03;101169.34;;;16.14;49.07
64158;BME280;50449;51.528;5.076;2023-04-15T08:44:34;101175.09;;;16.23;49.31
64158;BME280;50449;51.528;5.076;2023-04-15T08:47:07;101177.00;;;16.28;49.49
64158;BME280;50449;51.528;5.076;2023-04-15T08:49:35;101186.28;;;16.37;49.25
64158;BME280;50449;51.528;5.076;2023-04-15T08:52:03;101178.41;;;16.40;49.85
64158;BME280;50449;51.528;5.076;2023-04-15T08:54:30;101184.94;;;16.50;49.41
64158;BME280;50449;51.528;5.076;2023-04-15T08:56:57;101195.31;;;16.58;49.40
64158;BME280;50449;51.528;5.076;2023-04-15T08:59:23;101199.69;;;16.64;49.43
64158;BME280;50449;51.528;5.076;2023-04-15T09:01:49;101198.31;;;16.72;49.45
64158;BME280;50449;51.528;5.076;2023-04-15T09:04:15;101202.44;;;16.79;49.28
64158;BME280;50449;51.528;5.076;2023-04-15T09:06:41;101207.63;;;16.86;49.08
64158;BME280;50449;51.528;5.076;2023-04-15T09:09:06;101207.63;;;16.91;49.38
64158;BME280;50449;51.528;5.076;2023-04-15T09:11:32;101207.34;;;16.98;49.00
64158;BME280;50449;51.528;5.076;2023-04-15T09:13:57;101216.63;;;17.02;49.29
64158;BME280;50449;51.528;5.076;2023-04-15T09:16:22;101218.53;;;17.06;49.34
64158;BME280;50449;51.528;5.076;2023-04-15T09:18:48;101225.91;;;17.11;49.26
64158;BME280;50449;51.528;5.076;2023-04-15T09:21:15;101229.44;;;17.17;49.29
64158;BME280;50449;51.528;5.076;2023-04-15T09:23:54;101228.88;;;17.20;48.48
64158;BME280;50449;51.528;5.076;2023-04-15T09:26:41;101240.06;;;17.23;49.60
64158;BME280;50449;51.528;5.076;2023-04-15T09:29:08;101243.34;;;17.25;49.98
64158;BME280;50449;51.528;5.076;2023-04-15T09:31:38;101239.22;;;17.33;49.90
64158;BME280;50449;51.528;5.076;2023-04-15T09:34:04;101250.16;;;17.38;49.58
64158;BME280;50449;51.528;5.076;2023-04-15T09:36:40;101251.25;;;17.42;49.43
64158;BME280;50449;51.528;5.076;2023-04-15T09:39:16;101249.88;;;17.45;49.75
64158;BME280;50449;51.528;5.076;2023-04-15T09:41:41;101253.69;;;17.49;49.76
64158;BME280;50449;51.528;5.076;2023-04-15T09:44:22;101253.69;;;17.54;49.58
64158;BME280;50449;51.528;5.076;2023-04-15T09:46:47;101256.41;;;17.59;49.19
64158;BME280;50449;51.528;5.076;2023-04-15T09:49:12;101256.66;;;17.63;48.98
64158;BME280;50449;51.528;5.076;2023-04-15T09:51:38;101264.28;;;17.66;49.28
64158;BME280;50449;51.528;5.076;2023-04-15T09:54:04;101270.03;;;17.69;49.20
64158;BME280;50449;51.528;5.076;2023-04-15T09:56:36;101267.56;;;17.73;49.33
64158;BME280;50449;51.528;5.076;2023-04-15T09:59:06;101275.72;;;17.78;49.08
64158;BME280;50449;51.528;5.076;2023-04-15T10:01:32;101274.38;;;17.81;48.99
64158;BME280;50449;51.528;5.076;2023-04-15T10:04:02;101272.75;;;17.85;49.19
64158;BME280;50449;51.528;5.076;2023-04-15T10:06:28;101271.06;;;17.89;49.44
64158;BME280;50449;51.528;5.076;2023-04-15T10:08:55;101273.78;;;17.94;49.29
64158;BME280;50449;51.528;5.076;2023-04-15T10:11:21;101274.88;;;17.98;48.76
64158;BME280;50449;51.528;5.076;2023-04-15T10:13:49;101286.34;;;18.00;49.06
64158;BME280;50449;51.528;5.076;2023-04-15T10:16:18;101278.13;;;18.05;49.33
64158;BME280;50449;51.528;5.076;2023-04-15T10:18:46;101281.94;;;18.09;48.92
64158;BME280;50449;51.528;5.076;2023-04-15T10:21:13;101289.59;;;18.12;49.12
64158;BME280;50449;51.528;5.076;2023-04-15T10:23:40;101289.56;;;18.17;49.25
64158;BME280;50449;51.528;5.076;2023-04-15T10:26:07;101294.47;;;18.21;49.01
64158;BME280;50449;51.528;5.076;2023-04-15T10:28:34;101291.97;;;18.24;48.91
64158;BME280;50449;51.528;5.076;2023-04-15T10:31:00;101296.91;;;18.27;48.24
64158;BME280;50449;51.528;5.076;2023-04-15T10:33:26;101292.78;;;18.30;48.21
64158;BME280;50449;51.528;5.076;2023-04-15T10:35:54;101294.97;;;18.33;48.72
64158;BME280;50449;51.528;5.076;2023-04-15T10:38:37;101303.41;;;18.36;48.58
64158;BME280;50449;51.528;5.076;2023-04-15T10:41:20;101293.81;;;18.39;47.92
64158;BME280;50449;51.528;5.076;2023-04-15T10:44:14;101303.13;;;18.38;48.88
64158;BME280;50449;51.528;5.076;2023-04-15T10:46:42;101299.00;;;18.46;48.83
64158;BME280;50449;51.528;5.076;2023-04-15T10:49:24;101303.91;;;18.49;48.74
64158;BME280;50449;51.528;5.076;2023-04-15T10:51:52;101311.81;;;18.55;48.31
64158;BME280;50449;51.528;5.076;2023-04-15T10:59:28;101315.84;;;18.63;48.22
64158;BME280;50449;51.528;5.076;2023-04-15T11:02:04;101331.69;;;18.66;48.29
64158;BME280;50449;51.528;5.076;2023-04-15T11:04:50;101330.63;;;18.67;48.01
64158;BME280;50449;51.528;5.076;2023-04-15T11:07:32;101329.22;;;18.65;48.88
64158;BME280;50449;51.528;5.076;2023-04-15T11:09:58;101333.59;;;18.71;48.68
64158;BME280;50449;51.528;5.076;2023-04-15T11:12:33;101339.63;;;18.73;47.84
64158;BME280;50449;51.528;5.076;2023-04-15T11:14:59;101342.63;;;18.76;48.44
64158;BME280;50449;51.528;5.076;2023-04-15T11:17:27;101337.69;;;18.78;48.35
64158;BME280;50449;51.528;5.076;2023-04-15T11:19:53;101344.25;;;18.83;47.92
64158;BME280;50449;51.528;5.076;2023-04-15T11:22:19;101333.00;;;18.84;47.78
64158;BME280;50449;51.528;5.076;2023-04-15T11:24:47;101341.19;;;18.84;48.32
64158;BME280;50449;51.528;5.076;2023-04-15T11:27:20;101336.25;;;18.86;47.50
64158;BME280;50449;51.528;5.076;2023-04-15T11:29:45;101340.13;;;18.85;47.12
64158;BME280;50449;51.528;5.076;2023-04-15T11:32:11;101345.28;;;18.87;47.30
64158;BME280;50449;51.528;5.076;2023-04-15T11:34:36;101344.44;;;18.91;47.29
64158;BME280;50449;51.528;5.076;2023-04-15T11:37:05;101354.81;;;18.94;47.59
64158;BME280;50449;51.528;5.076;2023-04-15T11:39:32;101342.78;;;18.95;47.21
64158;BME280;50449;51.528;5.076;2023-04-15T11:41:57;101348.78;;;18.97;47.33
64158;BME280;50449;51.528;5.076;2023-04-15T11:44:22;101352.88;;;19.00;47.25
64158;BME280;50449;51.528;5.076;2023-04-15T11:46:48;101351.78;;;19.01;46.87
64158;BME280;50449;51.528;5.076;2023-04-15T11:49:29;101363.53;;;19.01;46.70
64158;BME280;50449;51.528;5.076;2023-04-15T11:51:55;101364.06;;;19.03;47.00
64158;BME280;50449;51.528;5.076;2023-04-15T11:54:21;101369.78;;;19.07;47.54
64158;BME280;50449;51.528;5.076;2023-04-15T11:56:50;101356.06;;;19.12;46.83
64158;BME280;50449;51.528;5.076;2023-04-15T11:59:16;101357.94;;;19.17;46.93
64158;BME280;50449;51.528;5.076;2023-04-15T12:01:41;101359.28;;;19.19;47.47
64158;BME280;50449;51.528;5.076;2023-04-15T12:04:16;101366.13;;;19.22;47.52
64158;BME280;50449;51.528;5.076;2023-04-15T12:06:44;101372.69;;;19.26;47.68
64158;BME280;50449;51.528;5.076;2023-04-15T12:09:12;101378.97;;;19.27;47.78
64158;BME280;50449;51.528;5.076;2023-04-15T12:16:44;101380.84;;;19.31;48.12
64158;BME280;50449;51.528;5.076;2023-04-15T12:19:12;101388.50;;;19.34;47.76
64158;BME280;50449;51.528;5.076;2023-04-15T12:21:41;101394.50;;;19.36;47.83
64158;BME280;50449;51.528;5.076;2023-04-15T12:24:10;101402.97;;;19.40;47.57
64158;BME280;50449;51.528;5.076;2023-04-15T12:26:42;101402.41;;;19.43;47.13
64158;BME280;50449;51.528;5.076;2023-04-15T12:29:09;101403.75;;;19.45;47.42
64158;BME280;50449;51.528;5.076;2023-04-15T12:31:36;101403.19;;;19.49;47.32
64158;BME280;50449;51.528;5.076;2023-04-15T12:34:03;101405.34;;;19.52;46.88
64158;BME280;50449;51.528;5.076;2023-04-15T12:36:31;101416.88;;;19.49;47.41
64158;BME280;50449;51.528;5.076;2023-04-15T12:39:03;101411.38;;;19.54;47.77
64158;BME280;50449;51.528;5.076;2023-04-15T12:41:29;101415.97;;;19.58;47.89
64158;BME280;50449;51.528;5.076;2023-04-15T12:43:54;101416.50;;;19.60;47.62
64158;BME280;50449;51.528;5.076;2023-04-15T12:46:19;101420.03;;;19.66;47.61
64158;BME280;50449;51.528;5.076;2023-04-15T12:48:46;101412.38;;;19.68;47.70
64158;BME280;50449;51.528;5.076;2023-04-15T12:51:13;101426.03;;;19.73;47.54
64158;BME280;50449;51.528;5.076;2023-04-15T12:53:38;101437.81;;;19.74;47.06
64158;BME280;50449;51.528;5.076;2023-04-15T12:56:03;101436.94;;;19.78;47.20
64158;BME280;50449;51.528;5.076;2023-04-15T12:58:29;101431.97;;;19.80;47.01